Date,TemperatureHighF,TemperatureAvgF,TemperatureLowF,DewpointHighF,DewpointAvgF,DewpointLowF,HumidityHigh,HumidityAvg,HumidityLow,PressureMaxIn,PressureMinIn,WindSpeedMaxMPH,WindSpeedAvgMPH,GustSpeedMaxMPH,PrecipitationSumIn
2013-4-1,74.0,66.5,59.5,60.6,56.8,53.7,84,72,54,30.03,29.93,19,2,19,0.00
2013-4-2,75.3,66.9,58.6,59.4,56.8,53.7,86,71,52,30.10,29.98,12,1,12,0.00
2013-4-3,77.5,70.4,63.8,63.9,61.5,57.6,89,74,61,30.09,30.00,10,1,12,0.01
2013-4-4,78.3,72.8,67.4,67.6,65.0,62.8,88,77,66,30.10,30.00,12,1,12,0.00
2013-4-5,79.1,74.1,70.8,68.7,66.5,64.5,85,77,66,30.15,30.03,16,2,17,0.00
2013-4-6,81.0,75.6,73.0,72.8,70.2,68.2,88,83,74,30.17,30.07,17,2,18,0.00
2013-4-7,80.5,75.0,72.7,71.8,69.5,67.8,90,83,74,30.19,30.08,15,2,18,0.00
2013-4-8,80.2,75.1,71.9,69.7,68.1,66.5,85,79,69,30.12,29.98,13,2,13,0.00
2013-4-9,80.5,75.3,72.4,70.5,67.8,66.5,84,78,69,30.09,29.99,20,2,20,0.00
2013-4-10,79.8,75.4,72.6,70.1,68.7,67.3,86,80,71,30.08,29.98,20,3,20,0.00
2013-4-11,81.0,75.5,69.0,71.5,69.3,66.2,92,81,70,30.05,29.94,22,2,22,0.00
2013-4-12,79.5,75.1,68.4,70.5,68.0,64.4,87,79,66,29.99,29.89,20,2,20,0.01
2013-4-13,83.7,75.6,68.4,69.8,67.4,64.3,90,77,59,29.96,29.82,18,2,18,0.00
2013-4-14,83.2,75.6,69.3,70.1,67.3,65.0,93,76,57,29.97,29.86,17,2,17,0.27
2013-4-15,78.9,72.3,68.2,71.3,68.9,65.6,95,89,75,30.06,29.92,8,1,8,0.08
2013-4-16,83.0,74.1,65.4,71.8,68.1,63.6,96,82,60,30.13,29.99,12,1,12,0.01
2013-4-17,80.0,75.7,72.8,71.6,68.9,66.2,85,80,72,30.18,30.06,20,2,20,0.00
2013-4-18,79.7,75.2,72.0,71.1,68.0,66.2,84,78,68,30.17,30.08,19,2,19,0.00
2013-4-19,76.3,74.2,72.1,70.4,68.5,66.4,89,82,76,30.13,30.03,23,3,23,0.03
2013-4-20,79.9,74.4,68.3,69.7,67.6,64.8,91,80,69,30.09,30.01,14,1,14,0.00
2013-4-21,85.3,74.8,66.1,69.8,67.1,63.7,94,78,55,30.04,29.95,14,1,14,0.00
2013-4-22,80.3,74.0,70.1,72.6,69.1,66.6,95,85,68,30.04,29.95,16,2,16,0.87
2013-4-23,80.2,74.8,70.8,72.8,68.7,65.9,93,82,64,30.08,29.97,17,2,17,0.33
2013-4-24,81.0,73.6,68.5,72.1,69.5,66.8,95,87,72,30.12,30.01,12,1,12,0.66
2013-4-25,81.2,76.4,72.9,70.5,68.6,66.3,87,77,67,30.09,30.01,12,2,13,0.01
2013-4-26,80.7,76.1,73.4,69.1,66.7,64.5,81,73,59,30.06,29.99,22,3,22,0.00
2013-4-27,81.5,75.7,70.2,68.3,66.2,64.0,86,73,57,30.05,29.96,17,2,17,0.00
2013-4-28,85.5,76.2,67.0,70.6,66.9,64.0,92,74,52,30.03,29.92,14,2,14,0.00
2013-4-29,84.0,78.1,72.0,70.6,68.5,66.6,84,72,61,29.98,29.89,17,3,17,0.00
2013-4-30,83.9,76.0,68.5,72.3,69.2,65.5,92,80,65,30.03,29.92,15,2,15,0.00